sensor_id;sensor_type;location;lat;lon;timestamp;pressure;altitude;pressure_sealevel;temperature;humidity
66381;BME280;53177;52.648;1.214;2024-02-26T00:01:26;99541.31;;;4.75;100.00
66381;BME280;53177;52.648;1.214;2024-02-26T00:03:51;99544.91;;;4.69;100.00
66381;BME280;53177;52.648;1.214;2024-02-26T00:06:17;99550.13;;;4.71;100.00
66381;BME280;53177;52.648;1.214;2024-02-26T00:08:43;99544.00;;;4.70;100.00
66381;BME280;53177;52.648;1.214;2024-02-26T00:11:09;99547.56;;;4.68;100.00
66381;BME280;53177;52.648;1.214;2024-02-26T00:13:35;99549.38;;;4.63;100.00
66381;BME280;53177;52.648;1.214;2024-02-26T00:16:00;99554.66;;;4.61;100.00
66381;BME280;53177;52.648;1.214;2024-02-26T00:18:25;99560.72;;;4.63;100.00
66381;BME280;53177;52.648;1.214;2024-02-26T00:20:51;99550.31;;;4.59;100.00
66381;BME280;53177;52.648;1.214;2024-02-26T00:23:16;99557.28;;;4.61;100.00
66381;BME280;53177;52.648;1.214;2024-02-26T00:25:42;99559.91;;;4.61;100.00
66381;BME280;53177;52.648;1.214;2024-02-26T00:28:09;99565.97;;;4.63;100.00
66381;BME280;53177;52.648;1.214;2024-02-26T00:30:34;99553.78;;;4.61;100.00
66381;BME280;53177;52.648;1.214;2024-02-26T00:32:59;99572.13;;;4.59;100.00
66381;BME280;53177;52.648;1.214;2024-02-26T00:35:25;99566.84;;;4.62;100.00
66381;BME280;53177;52.648;1.214;2024-02-26T00:37:50;99570.38;;;4.60;100.00
66381;BME280;53177;52.648;1.214;2024-02-26T00:40:16;99577.34;;;4.61;100.00
66381;BME280;53177;52.648;1.214;2024-02-26T00:42:41;99571.31;;;4.57;100.00
66381;BME280;53177;52.648;1.214;2024-02-26T00:45:14;99577.41;;;4.58;100.00
66381;BME280;53177;52.648;1.214;2024-02-26T00:47:42;99577.44;;;4.56;100.00
66381;BME280;53177;52.648;1.214;2024-02-26T00:50:08;99580.09;;;4.53;100.00
66381;BME280;53177;52.648;1.214;2024-02-26T00:52:34;99587.91;;;4.56;100.00
66381;BME280;53177;52.648;1.214;2024-02-26T00:54:59;99590.53;;;4.55;100.00
66381;BME280;53177;52.648;1.214;2024-02-26T00:57:25;99593.16;;;4.55;100.00
66381;BME280;53177;52.648;1.214;2024-02-26T00:59:50;99600.09;;;4.57;100.00
66381;BME280;53177;52.648;1.214;2024-02-26T01:02:16;99606.25;;;4.55;100.00
66381;BME280;53177;52.648;1.214;2024-02-26T01:04:41;99600.19;;;4.53;100.00
66381;BME280;53177;52.648;1.214;2024-02-26T01:07:06;99611.47;;;4.56;100.00
66381;BME280;53177;52.648;1.214;2024-02-26T01:09:32;99610.53;;;4.59;100.00
66381;BME280;53177;52.648;1.214;2024-02-26T01:11:57;99618.44;;;4.57;100.00
66381;BME280;53177;52.648;1.214;2024-02-26T01:14:22;99623.66;;;4.57;100.00
66381;BME280;53177;52.648;1.214;2024-02-26T01:16:48;99612.31;;;4.57;100.00
66381;BME280;53177;52.648;1.214;2024-02-26T01:19:14;99624.53;;;4.56;100.00
66381;BME280;53177;52.648;1.214;2024-02-26T01:21:39;99621.94;;;4.56;100.00
66381;BME280;53177;52.648;1.214;2024-02-26T01:24:05;99624.63;;;4.52;100.00
66381;BME280;53177;52.648;1.214;2024-02-26T01:26:30;99624.63;;;4.52;100.00
66381;BME280;53177;52.648;1.214;2024-02-26T01:28:56;99632.50;;;4.50;100.00
66381;BME280;53177;52.648;1.214;2024-02-26T01:31:21;99632.47;;;4.53;100.00
66381;BME280;53177;52.648;1.214;2024-02-26T01:33:46;99642.06;;;4.53;100.00
66381;BME280;53177;52.648;1.214;2024-02-26T01:36:12;99629.91;;;4.49;100.00
66381;BME280;53177;52.648;1.214;2024-02-26T01:38:37;99645.69;;;4.44;100.00
66381;BME280;53177;52.648;1.214;2024-02-26T01:41:03;99640.47;;;4.43;100.00
66381;BME280;53177;52.648;1.214;2024-02-26T01:43:28;99650.91;;;4.44;100.00
66381;BME280;53177;52.648;1.214;2024-02-26T01:45:54;99651.81;;;4.43;100.00
66381;BME280;53177;52.648;1.214;2024-02-26T01:48:20;99657.06;;;4.43;100.00
66381;BME280;53177;52.648;1.214;2024-02-26T01:50:46;99664.09;;;4.36;100.00
66381;BME280;53177;52.648;1.214;2024-02-26T01:53:12;99653.63;;;4.38;100.00
66381;BME280;53177;52.648;1.214;2024-02-26T01:55:38;99658.88;;;4.36;100.00
66381;BME280;53177;52.648;1.214;2024-02-26T01:58:03;99659.72;;;4.38;100.00
66381;BME280;53177;52.648;1.214;2024-02-26T02:00:30;99665.91;;;4.34;100.00
66381;BME280;53177;52.648;1.214;2024-02-26T02:02:56;99666.72;;;4.38;100.00
66381;BME280;53177;52.648;1.214;2024-02-26T02:05:21;99666.72;;;4.39;100.00
66381;BME280;53177;52.648;1.214;2024-02-26T02:07:47;99671.97;;;4.36;100.00
66381;BME280;53177;52.648;1.214;2024-02-26T02:10:15;99676.31;;;4.37;100.00
66381;BME280;53177;52.648;1.214;2024-02-26T02:12:41;99670.22;;;4.37;100.00
66381;BME280;53177;52.648;1.214;2024-02-26T02:15:06;99671.13;;;4.33;100.00
66381;BME280;53177;52.648;1.214;2024-02-26T02:17:32;99684.22;;;4.36;100.00
66381;BME280;53177;52.648;1.214;2024-02-26T02:19:58;99679.00;;;4.33;100.00
66381;BME280;53177;52.648;1.214;2024-02-26T02:22:23;99688.56;;;4.35;100.00
66381;BME280;53177;52.648;1.214;2024-02-26T02:24:52;99696.44;;;4.34;100.00
66381;BME280;53177;52.648;1.214;2024-02-26T02:27:19;99688.56;;;4.34;100.00
66381;BME280;53177;52.648;1.214;2024-02-26T02:29:44;99695.50;;;4.38;100.00
66381;BME280;53177;52.648;1.214;2024-02-26T02:32:10;99704.19;;;4.40;100.00
66381;BME280;53177;52.648;1.214;2024-02-26T02:34:36;99706.78;;;4.43;100.00
66381;BME280;53177;52.648;1.214;2024-02-26T02:37:02;99702.38;;;4.43;100.00
66381;BME280;53177;52.648;1.214;2024-02-26T02:39:27;99713.72;;;4.46;100.00
66381;BME280;53177;52.648;1.214;2024-02-26T02:41:52;99717.22;;;4.46;100.00
66381;BME280;53177;52.648;1.214;2024-02-26T02:44:18;99711.97;;;4.46;100.00
66381;BME280;53177;52.648;1.214;2024-02-26T02:46:43;99732.03;;;4.47;100.00
66381;BME280;53177;52.648;1.214;2024-02-26T02:49:09;99730.25;;;4.49;100.00
66381;BME280;53177;52.648;1.214;2024-02-26T02:51:38;99722.38;;;4.49;100.00
66381;BME280;53177;52.648;1.214;2024-02-26T02:54:03;99722.34;;;4.52;100.00
66381;BME280;53177;52.648;1.214;2024-02-26T02:56:29;99731.00;;;4.57;100.00
66381;BME280;53177;52.648;1.214;2024-02-26T02:58:54;99735.38;;;4.57;100.00
66381;BME280;53177;52.648;1.214;2024-02-26T03:01:20;99742.34;;;4.58;100.00
66381;BME280;53177;52.648;1.214;2024-02-26T03:03:45;99746.72;;;4.56;100.00
66381;BME280;53177;52.648;1.214;2024-02-26T03:06:10;99747.59;;;4.55;100.00
66381;BME280;53177;52.648;1.214;2024-02-26T03:08:36;99755.44;;;4.56;99.22
66381;BME280;53177;52.648;1.214;2024-02-26T03:11:05;99755.44;;;4.58;98.87
66381;BME280;53177;52.648;1.214;2024-02-26T03:13:30;99753.69;;;4.57;98.70
66381;BME280;53177;52.648;1.214;2024-02-26T03:15:55;99760.69;;;4.58;99.71
66381;BME280;53177;52.648;1.214;2024-02-26T03:18:21;99762.38;;;4.59;100.00
66381;BME280;53177;52.648;1.214;2024-02-26T03:20:47;99766.75;;;4.60;100.00
66381;BME280;53177;52.648;1.214;2024-02-26T03:23:12;99776.38;;;4.58;100.00
66381;BME280;53177;52.648;1.214;2024-02-26T03:25:44;99778.91;;;4.62;100.00
66381;BME280;53177;52.648;1.214;2024-02-26T03:28:11;99776.34;;;4.61;100.00
66381;BME280;53177;52.648;1.214;2024-02-26T03:30:37;99786.81;;;4.59;100.00
66381;BME280;53177;52.648;1.214;2024-02-26T03:33:03;99790.31;;;4.60;100.00
66381;BME280;53177;52.648;1.214;2024-02-26T03:35:28;99793.78;;;4.62;99.61
66381;BME280;53177;52.648;1.214;2024-02-26T03:37:54;99801.66;;;4.60;99.46
66381;BME280;53177;52.648;1.214;2024-02-26T03:40:19;99808.69;;;4.57;99.48
66381;BME280;53177;52.648;1.214;2024-02-26T03:42:45;99808.69;;;4.57;97.78
66381;BME280;53177;52.648;1.214;2024-02-26T03:45:10;99822.66;;;4.56;98.64
66381;BME280;53177;52.648;1.214;2024-02-26T03:47:37;99818.22;;;4.59;97.11
66381;BME280;53177;52.648;1.214;2024-02-26T03:50:04;99828.75;;;4.55;97.86
66381;BME280;53177;52.648;1.214;2024-02-26T03:52:30;99828.84;;;4.49;97.74
66381;BME280;53177;52.648;1.214;2024-02-26T03:54:55;99841.97;;;4.44;98.11
66381;BME280;53177;52.648;1.214;2024-02-26T03:57:20;99835.03;;;4.43;99.24
66381;BME280;53177;52.648;1.214;2024-02-26T03:59:46;99846.34;;;4.43;97.66
66381;BME280;53177;52.648;1.214;2024-02-26T04:02:11;99851.63;;;4.40;98.00
66381;BME280;53177;52.648;1.214;2024-02-26T04:04:37;99847.34;;;4.33;98.99
66381;BME280;53177;52.648;1.214;2024-02-26T04:07:03;99853.44;;;4.35;97.96
66381;BME280;53177;52.648;1.214;2024-02-26T04:09:28;99862.16;;;4.34;97.02
66381;BME280;53177;52.648;1.214;2024-02-26T04:11:55;99869.16;;;4.34;97.06
66381;BME280;53177;52.648;1.214;2024-02-26T04:14:21;99878.78;;;4.30;97.01
66381;BME280;53177;52.648;1.214;2024-02-26T04:16:46;99888.38;;;4.30;97.57
66381;BME280;53177;52.648;1.214;2024-02-26T04:19:16;99885.81;;;4.27;97.91
66381;BME280;53177;52.648;1.214;2024-02-26T04:21:43;99892.81;;;4.25;98.04
66381;BME280;53177;52.648;1.214;2024-02-26T04:24:08;99902.41;;;4.21;97.70
66381;BME280;53177;52.648;1.214;2024-02-26T04:26:34;99904.13;;;4.25;97.22
66381;BME280;53177;52.648;1.214;2024-02-26T04:28:59;99907.66;;;4.24;97.16
66381;BME280;53177;52.648;1.214;2024-02-26T04:31:25;99903.28;;;4.23;97.48
66381;BME280;53177;52.648;1.214;2024-02-26T04:33:51;99922.44;;;4.27;96.51
66381;BME280;53177;52.648;1.214;2024-02-26T04:36:17;99923.25;;;4.33;96.40
66381;BME280;53177;52.648;1.214;2024-02-26T04:38:43;99942.41;;;4.37;96.23
66381;BME280;53177;52.648;1.214;2024-02-26T04:41:08;99942.34;;;4.41;96.77
66381;BME280;53177;52.648;1.214;2024-02-26T04:43:33;99935.38;;;4.42;96.16
66381;BME280;53177;52.648;1.214;2024-02-26T04:45:59;99937.91;;;4.50;96.21
66381;BME280;53177;52.648;1.214;2024-02-26T04:48:24;99956.28;;;4.47;97.29
66381;BME280;53177;52.648;1.214;2024-02-26T04:50:50;99957.97;;;4.49;96.82
66381;BME280;53177;52.648;1.214;2024-02-26T04:53:15;99961.47;;;4.50;98.11
66381;BME280;53177;52.648;1.214;2024-02-26T04:55:40;99962.38;;;4.47;98.12
66381;BME280;53177;52.648;1.214;2024-02-26T04:58:06;99971.06;;;4.48;100.00
66381;BME280;53177;52.648;1.214;2024-02-26T05:00:31;99974.53;;;4.54;98.89
66381;BME280;53177;52.648;1.214;2024-02-26T05:02:57;99983.19;;;4.59;98.64
66381;BME280;53177;52.648;1.214;2024-02-26T05:05:22;99973.63;;;4.55;99.45
66381;BME280;53177;52.648;1.214;2024-02-26T05:07:48;99972.75;;;4.55;100.00
66381;BME280;53177;52.648;1.214;2024-02-26T05:10:14;99983.25;;;4.53;100.00
66381;BME280;53177;52.648;1.214;2024-02-26T05:12:39;99984.13;;;4.54;100.00
66381;BME280;53177;52.648;1.214;2024-02-26T05:15:08;99997.22;;;4.54;99.17
66381;BME280;53177;52.648;1.214;2024-02-26T05:17:33;100003.31;;;4.51;99.71
66381;BME280;53177;52.648;1.214;2024-02-26T05:19:59;100005.91;;;4.57;98.98
66381;BME280;53177;52.648;1.214;2024-02-26T05:22:24;100011.19;;;4.54;99.34
66381;BME280;53177;52.648;1.214;2024-02-26T05:24:50;100013.75;;;4.56;99.18
66381;BME280;53177;52.648;1.214;2024-02-26T05:27:16;100023.34;;;4.55;99.69
66381;BME280;53177;52.648;1.214;2024-02-26T05:29:42;100026.88;;;4.51;100.00
66381;BME280;53177;52.648;1.214;2024-02-26T05:32:07;100026.00;;;4.52;99.08
66381;BME280;53177;52.648;1.214;2024-02-26T05:34:32;100042.56;;;4.57;98.56
66381;BME280;53177;52.648;1.214;2024-02-26T05:36:58;100033.78;;;4.58;98.90
66381;BME280;53177;52.648;1.214;2024-02-26T05:39:24;100039.06;;;4.57;100.00
66381;BME280;53177;52.648;1.214;2024-02-26T05:41:49;100043.44;;;4.55;100.00
66381;BME280;53177;52.648;1.214;2024-02-26T05:44:14;100056.59;;;4.50;99.83
66381;BME280;53177;52.648;1.214;2024-02-26T05:46:41;100052.25;;;4.46;99.97
66381;BME280;53177;52.648;1.214;2024-02-26T05:49:07;100055.78;;;4.42;100.00
66381;BME280;53177;52.648;1.214;2024-02-26T05:51:32;100059.25;;;4.46;100.00
66381;BME280;53177;52.648;1.214;2024-02-26T05:53:58;100063.59;;;4.43;100.00
66381;BME280;53177;52.648;1.214;2024-02-26T05:56:23;100064.50;;;4.41;100.00
66381;BME280;53177;52.648;1.214;2024-02-26T05:58:49;100065.38;;;4.41;100.00
66381;BME280;53177;52.648;1.214;2024-02-26T06:01:17;100068.00;;;4.43;100.00
66381;BME280;53177;52.648;1.214;2024-02-26T06:03:43;100067.09;;;4.47;100.00
66381;BME280;53177;52.648;1.214;2024-02-26T06:06:13;100070.53;;;4.48;100.00
66381;BME280;53177;52.648;1.214;2024-02-26T06:08:40;100077.50;;;4.53;100.00
66381;BME280;53177;52.648;1.214;2024-02-26T06:11:08;100071.38;;;4.51;100.00
66381;BME280;53177;52.648;1.214;2024-02-26T06:13:34;100079.25;;;4.51;100.00
66381;BME280;53177;52.648;1.214;2024-02-26T06:16:00;100087.09;;;4.51;100.00
66381;BME280;53177;52.648;1.214;2024-02-26T06:18:26;100094.06;;;4.52;100.00
66381;BME280;53177;52.648;1.214;2024-02-26T06:20:51;100097.53;;;4.56;98.57
66381;BME280;53177;52.648;1.214;2024-02-26T06:23:17;100096.63;;;4.61;96.42
66381;BME280;53177;52.648;1.214;2024-02-26T06:25:42;100099.25;;;4.58;97.54
66381;BME280;53177;52.648;1.214;2024-02-26T06:28:08;100106.22;;;4.59;97.05
66381;BME280;53177;52.648;1.214;2024-02-26T06:30:34;100108.84;;;4.61;97.11
66381;BME280;53177;52.648;1.214;2024-02-26T06:33:00;100108.81;;;4.65;95.88
66381;BME280;53177;52.648;1.214;2024-02-26T06:35:26;100119.31;;;4.59;97.28
66381;BME280;53177;52.648;1.214;2024-02-26T06:37:52;100119.28;;;4.62;96.86
66381;BME280;53177;52.648;1.214;2024-02-26T06:40:20;100120.19;;;4.60;97.81
66381;BME280;53177;52.648;1.214;2024-02-26T06:42:46;100122.81;;;4.58;98.05
66381;BME280;53177;52.648;1.214;2024-02-26T06:45:11;100124.59;;;4.56;98.36
66381;BME280;53177;52.648;1.214;2024-02-26T06:47:40;100122.81;;;4.60;98.34
66381;BME280;53177;52.648;1.214;2024-02-26T06:50:05;100129.84;;;4.58;98.08
66381;BME280;53177;52.648;1.214;2024-02-26T06:52:31;100126.38;;;4.54;98.79
66381;BME280;53177;52.648;1.214;2024-02-26T06:54:56;100129.88;;;4.49;99.71
66381;BME280;53177;52.648;1.214;2024-02-26T06:57:21;100130.75;;;4.49;99.69
66381;BME280;53177;52.648;1.214;2024-02-26T06:59:47;100135.94;;;4.57;100.00
66381;BME280;53177;52.648;1.214;2024-02-26T07:02:13;100142.91;;;4.55;100.00
66381;BME280;53177;52.648;1.214;2024-02-26T07:04:39;100149.91;;;4.57;100.00
66381;BME280;53177;52.648;1.214;2024-02-26T07:07:05;100154.25;;;4.60;100.00
66381;BME280;53177;52.648;1.214;2024-02-26T07:09:31;100165.59;;;4.59;100.00
66381;BME280;53177;52.648;1.214;2024-02-26T07:11:56;100168.22;;;4.57;100.00
66381;BME280;53177;52.648;1.214;2024-02-26T07:14:22;100170.88;;;4.54;100.00
66381;BME280;53177;52.648;1.214;2024-02-26T07:16:47;100173.50;;;4.54;100.00
66381;BME280;53177;52.648;1.214;2024-02-26T07:19:13;100175.25;;;4.54;100.00
66381;BME280;53177;52.648;1.214;2024-02-26T07:21:38;100189.19;;;4.53;100.00
66381;BME280;53177;52.648;1.214;2024-02-26T07:24:05;100197.91;;;4.58;100.00
66381;BME280;53177;52.648;1.214;2024-02-26T07:26:30;100191.81;;;4.53;100.00
66381;BME280;53177;52.648;1.214;2024-02-26T07:28:56;100191.81;;;4.54;100.00
66381;BME280;53177;52.648;1.214;2024-02-26T07:31:21;100203.13;;;4.61;100.00
66381;BME280;53177;52.648;1.214;2024-02-26T07:33:46;100200.53;;;4.56;100.00
66381;BME280;53177;52.648;1.214;2024-02-26T07:36:12;100194.44;;;4.51;100.00
66381;BME280;53177;52.648;1.214;2024-02-26T07:38:38;100205.75;;;4.55;100.00
66381;BME280;53177;52.648;1.214;2024-02-26T07:41:03;100205.72;;;4.61;99.08
66381;BME280;53177;52.648;1.214;2024-02-26T07:43:29;100208.34;;;4.61;99.35
66381;BME280;53177;52.648;1.214;2024-02-26T07:45:54;100210.97;;;4.61;98.95
66381;BME280;53177;52.648;1.214;2024-02-26T07:48:20;100220.56;;;4.60;98.29
66381;BME280;53177;52.648;1.214;2024-02-26T07:50:46;100224.94;;;4.60;96.91
66381;BME280;53177;52.648;1.214;2024-02-26T07:53:11;100229.28;;;4.62;96.98
66381;BME280;53177;52.648;1.214;2024-02-26T07:55:36;100231.00;;;4.68;93.81
66381;BME280;53177;52.648;1.214;2024-02-26T07:58:02;100247.56;;;4.73;93.10
66381;BME280;53177;52.648;1.214;2024-02-26T08:00:28;100230.09;;;4.72;93.64
66381;BME280;53177;52.648;1.214;2024-02-26T08:02:53;100251.03;;;4.73;94.97
66381;BME280;53177;52.648;1.214;2024-02-26T08:05:19;100247.50;;;4.77;94.97
66381;BME280;53177;52.648;1.214;2024-02-26T08:07:44;100255.41;;;4.71;96.53
66381;BME280;53177;52.648;1.214;2024-02-26T08:10:10;100251.91;;;4.74;97.53
66381;BME280;53177;52.648;1.214;2024-02-26T08:12:36;100269.34;;;4.76;97.11
66381;BME280;53177;52.648;1.214;2024-02-26T08:15:02;100268.47;;;4.77;97.03
66381;BME280;53177;52.648;1.214;2024-02-26T08:17:27;100271.94;;;4.78;96.76
66381;BME280;53177;52.648;1.214;2024-02-26T08:19:53;100278.88;;;4.85;96.39
66381;BME280;53177;52.648;1.214;2024-02-26T08:22:18;100283.25;;;4.87;97.70
66381;BME280;53177;52.648;1.214;2024-02-26T08:24:44;100284.97;;;4.88;98.25
66381;BME280;53177;52.648;1.214;2024-02-26T08:27:10;100285.84;;;4.90;98.50
66381;BME280;53177;52.648;1.214;2024-02-26T08:29:35;100289.31;;;4.93;98.62
66381;BME280;53177;52.648;1.214;2024-02-26T08:32:01;100294.59;;;4.89;99.63
66381;BME280;53177;52.648;1.214;2024-02-26T08:34:26;100295.44;;;4.95;98.52
66381;BME280;53177;52.648;1.214;2024-02-26T08:36:52;100296.28;;;4.92;98.82
66381;BME280;53177;52.648;1.214;2024-02-26T08:39:18;100306.78;;;4.95;97.39
66381;BME280;53177;52.648;1.214;2024-02-26T08:41:44;100307.63;;;4.97;97.24
66381;BME280;53177;52.648;1.214;2024-02-26T08:44:10;100304.97;;;5.02;97.73
66381;BME280;53177;52.648;1.214;2024-02-26T08:46:36;100312.88;;;4.96;99.32
66381;BME280;53177;52.648;1.214;2024-02-26T08:49:01;100324.25;;;4.95;99.24
66381;BME280;53177;52.648;1.214;2024-02-26T08:51:26;100319.84;;;4.97;99.16
66381;BME280;53177;52.648;1.214;2024-02-26T08:53:52;100315.44;;;5.03;98.32
66381;BME280;53177;52.648;1.214;2024-02-26T08:56:19;100329.38;;;5.08;97.40
66381;BME280;53177;52.648;1.214;2024-02-26T08:58:46;100332.84;;;5.12;96.66
66381;BME280;53177;52.648;1.214;2024-02-26T09:01:14;100327.56;;;5.21;94.33
66381;BME280;53177;52.648;1.214;2024-02-26T09:03:39;100339.69;;;5.34;94.00
66381;BME280;53177;52.648;1.214;2024-02-26T09:06:05;100341.38;;;5.41;92.68
66381;BME280;53177;52.648;1.214;2024-02-26T09:08:32;100336.06;;;5.47;93.16
66381;BME280;53177;52.648;1.214;2024-02-26T09:10:57;100357.88;;;5.52;91.49
66381;BME280;53177;52.648;1.214;2024-02-26T09:13:23;100352.56;;;5.64;92.16
66381;BME280;53177;52.648;1.214;2024-02-26T09:15:49;100362.09;;;5.70;92.80
66381;BME280;53177;52.648;1.214;2024-02-26T09:18:14;100365.47;;;5.85;94.79
66381;BME280;53177;52.648;1.214;2024-02-26T09:20:40;100368.97;;;5.84;95.54
66381;BME280;53177;52.648;1.214;2024-02-26T09:23:06;100377.88;;;5.67;96.06
66381;BME280;53177;52.648;1.214;2024-02-26T09:25:31;100381.44;;;5.58;97.47
66381;BME280;53177;52.648;1.214;2024-02-26T09:27:59;100388.53;;;5.44;97.13
66381;BME280;53177;52.648;1.214;2024-02-26T09:30:24;100409.63;;;5.32;97.80
66381;BME280;53177;52.648;1.214;2024-02-26T09:32:50;100393.03;;;5.25;98.96
66381;BME280;53177;52.648;1.214;2024-02-26T09:35:15;100386.91;;;5.29;96.98
66381;BME280;53177;52.648;1.214;2024-02-26T09:37:41;100402.63;;;5.31;95.52
66381;BME280;53177;52.648;1.214;2024-02-26T09:40:09;100424.44;;;5.34;96.14
66381;BME280;53177;52.648;1.214;2024-02-26T09:42:37;100418.34;;;5.35;96.29
66381;BME280;53177;52.648;1.214;2024-02-26T09:45:10;100438.44;;;5.35;94.53
66381;BME280;53177;52.648;1.214;2024-02-26T09:47:38;100427.94;;;5.33;92.01
66381;BME280;53177;52.648;1.214;2024-02-26T09:50:06;100434.09;;;5.29;89.33
66381;BME280;53177;52.648;1.214;2024-02-26T09:52:34;100441.97;;;5.26;89.38
66381;BME280;53177;52.648;1.214;2024-02-26T09:55:04;100427.13;;;5.25;91.24
66381;BME280;53177;52.648;1.214;2024-02-26T09:57:29;100441.09;;;5.27;89.35
66381;BME280;53177;52.648;1.214;2024-02-26T09:59:59;100439.34;;;5.26;89.47
66381;BME280;53177;52.648;1.214;2024-02-26T10:02:29;100460.34;;;5.23;90.13
66381;BME280;53177;52.648;1.214;2024-02-26T10:04:55;100447.28;;;5.17;90.74
66381;BME280;53177;52.648;1.214;2024-02-26T10:07:23;100461.25;;;5.15;92.17
66381;BME280;53177;52.648;1.214;2024-02-26T10:09:48;100470.00;;;5.15;92.62
66381;BME280;53177;52.648;1.214;2024-02-26T10:12:15;100457.75;;;5.16;92.42
66381;BME280;53177;52.648;1.214;2024-02-26T10:14:42;100467.34;;;5.24;91.32
66381;BME280;53177;52.648;1.214;2024-02-26T10:17:08;100466.38;;;5.37;90.85
66381;BME280;53177;52.648;1.214;2024-02-26T10:19:34;100469.84;;;5.46;89.81
66381;BME280;53177;52.648;1.214;2024-02-26T10:22:00;100462.78;;;5.57;89.63
66381;BME280;53177;52.648;1.214;2024-02-26T10:24:27;100490.66;;;5.67;89.17
66381;BME280;53177;52.648;1.214;2024-02-26T10:26:54;100492.44;;;5.65;89.87
66381;BME280;53177;52.648;1.214;2024-02-26T10:29:20;100501.19;;;5.65;91.37
66381;BME280;53177;52.648;1.214;2024-02-26T10:31:46;100493.25;;;5.70;92.07
66381;BME280;53177;52.648;1.214;2024-02-26T10:34:12;100491.53;;;5.70;91.18
66381;BME280;53177;52.648;1.214;2024-02-26T10:36:38;100512.50;;;5.72;90.97
66381;BME280;53177;52.648;1.214;2024-02-26T10:39:06;100500.31;;;5.63;89.52
66381;BME280;53177;52.648;1.214;2024-02-26T10:41:33;100503.84;;;5.59;91.16
66381;BME280;53177;52.648;1.214;2024-02-26T10:43:58;100496.00;;;5.56;91.10
66381;BME280;53177;52.648;1.214;2024-02-26T10:46:25;100509.16;;;5.50;91.89
66381;BME280;53177;52.648;1.214;2024-02-26T10:48:51;100521.34;;;5.51;90.26
66381;BME280;53177;52.648;1.214;2024-02-26T10:51:28;100522.25;;;5.53;91.84
66381;BME280;53177;52.648;1.214;2024-02-26T10:53:58;100523.09;;;5.55;90.77
66381;BME280;53177;52.648;1.214;2024-02-26T10:56:28;100519.59;;;5.52;90.34
66381;BME280;53177;52.648;1.214;2024-02-26T10:58:58;100532.72;;;5.53;90.55
66381;BME280;53177;52.648;1.214;2024-02-26T11:01:24;100530.13;;;5.50;89.90
66381;BME280;53177;52.648;1.214;2024-02-26T11:03:51;100540.56;;;5.56;88.22
66381;BME280;53177;52.648;1.214;2024-02-26T11:06:18;100532.69;;;5.59;88.78
66381;BME280;53177;52.648;1.214;2024-02-26T11:08:48;100543.16;;;5.65;89.41
66381;BME280;53177;52.648;1.214;2024-02-26T11:11:18;100557.03;;;5.85;88.48
66381;BME280;53177;52.648;1.214;2024-02-26T11:13:46;100565.78;;;5.91;87.35
66381;BME280;53177;52.648;1.214;2024-02-26T11:16:21;100562.25;;;5.85;86.83
66381;BME280;53177;52.648;1.214;2024-02-26T11:18:48;100570.19;;;5.78;89.97
66381;BME280;53177;52.648;1.214;2024-02-26T11:21:17;100572.88;;;5.67;91.74
66381;BME280;53177;52.648;1.214;2024-02-26T11:23:52;100586.88;;;5.65;93.12
66381;BME280;53177;52.648;1.214;2024-02-26T11:26:19;100583.41;;;5.60;92.79
66381;BME280;53177;52.648;1.214;2024-02-26T11:28:47;100592.16;;;5.56;92.55
66381;BME280;53177;52.648;1.214;2024-02-26T11:31:13;100596.53;;;5.51;93.07
66381;BME280;53177;52.648;1.214;2024-02-26T11:33:39;100599.19;;;5.49;93.13
66381;BME280;53177;52.648;1.214;2024-02-26T11:36:09;100602.66;;;5.53;94.30
66381;BME280;53177;52.648;1.214;2024-02-26T11:38:35;100609.63;;;5.60;95.98
66381;BME280;53177;52.648;1.214;2024-02-26T11:41:01;100600.88;;;5.59;94.92
66381;BME280;53177;52.648;1.214;2024-02-26T11:48:58;100620.94;;;5.72;94.31
66381;BME280;53177;52.648;1.214;2024-02-26T11:51:28;100627.94;;;5.72;95.53
66381;BME280;53177;52.648;1.214;2024-02-26T11:53:57;100627.06;;;5.71;92.71
66381;BME280;53177;52.648;1.214;2024-02-26T11:56:24;100641.03;;;5.75;93.02
66381;BME280;53177;52.648;1.214;2024-02-26T11:59:04;100630.56;;;5.76;91.92
66381;BME280;53177;52.648;1.214;2024-02-26T12:01:45;100629.69;;;5.76;89.75
66381;BME280;53177;52.648;1.214;2024-02-26T12:04:16;100642.75;;;5.77;89.55
66381;BME280;53177;52.648;1.214;2024-02-26T12:06:45;100650.63;;;5.77;89.67
66381;BME280;53177;52.648;1.214;2024-02-26T12:09:11;100628.81;;;5.75;90.20
66381;BME280;53177;52.648;1.214;2024-02-26T12:11:38;100641.91;;;5.78;90.93
66381;BME280;53177;52.648;1.214;2024-02-26T12:14:06;100646.25;;;5.81;91.50
66381;BME280;53177;52.648;1.214;2024-02-26T12:16:36;100652.34;;;5.84;90.97
66381;BME280;53177;52.648;1.214;2024-02-26T12:19:06;100652.34;;;5.84;91.25
66381;BME280;53177;52.648;1.214;2024-02-26T12:21:36;100655.00;;;5.83;91.06
66381;BME280;53177;52.648;1.214;2024-02-26T12:24:12;100665.50;;;5.83;91.57
66381;BME280;53177;52.648;1.214;2024-02-26T12:26:39;100661.13;;;5.80;89.89
66381;BME280;53177;52.648;1.214;2024-02-26T12:29:05;100674.25;;;5.82;89.72
66381;BME280;53177;52.648;1.214;2024-02-26T12:31:32;100673.38;;;5.91;87.48
66381;BME280;53177;52.648;1.214;2024-02-26T12:33:58;100676.78;;;6.06;85.95
66381;BME280;53177;52.648;1.214;2024-02-26T12:36:24;100670.53;;;6.25;84.80
66381;BME280;53177;52.648;1.214;2024-02-26T12:38:50;100679.25;;;6.32;84.07
66381;BME280;53177;52.648;1.214;2024-02-26T12:41:16;100688.94;;;6.24;82.21
66381;BME280;53177;52.648;1.214;2024-02-26T12:43:42;100692.41;;;6.29;82.92
66381;BME280;53177;52.648;1.214;2024-02-26T12:46:07;100699.38;;;6.39;82.16
66381;BME280;53177;52.648;1.214;2024-02-26T12:48:33;100688.81;;;6.45;81.31
66381;BME280;53177;52.648;1.214;2024-02-26T12:50:59;100704.53;;;6.51;82.27
66381;BME280;53177;52.648;1.214;2024-02-26T12:53:25;100714.25;;;6.39;82.08
66381;BME280;53177;52.648;1.214;2024-02-26T12:55:53;100702.00;;;6.38;83.19
66381;BME280;53177;52.648;1.214;2024-02-26T12:58:19;100719.50;;;6.39;84.92
66381;BME280;53177;52.648;1.214;2024-02-26T13:00:45;100728.31;;;6.22;85.67